Buoy 62726

sailwx.info

Track history (hours):
 
Tides and Currents Weather Stations Pressure Air Temp Water Temp Dewpoint Dewpoint Depression Visibility Wind Speed Wind Dir Waves Ship Positions

Drifting buoy 62726

Last reported at 2015-Jan-28 12:00 UTC. Time now 2015-Jan-28 14:14 UTC.
Position N 41°01' W 018°54'.

Water temperature 14.1 ° C

Date/timePositionNaut miles runAvg speedWind from/ knotsBaromVisibWave heightAir tempDewpointWater temp
2015-Jan-28 12:00N 41°01' W 018°54'0 0.0 14.1
2015-Jan-28 11:00N 41°01' W 018°54'0 0.1 14.1
2015-Jan-28 07:00N 41°01' W 018°54'0 0.1 14.1
2015-Jan-28 05:00N 41°01' W 018°54'1 0.3 14.1
2015-Jan-28 01:00N 41°02' W 018°54'0 0.0 14.1
2015-Jan-27 21:00N 41°02' W 018°54'0 0.2 14.1
2015-Jan-27 20:00N 41°03' W 018°54'1 0.5 14.1
2015-Jan-27 18:00N 41°02' W 018°54'2 1.0 14.2
2015-Jan-27 16:00N 41°02' W 018°52'2 0.5 14.2
2015-Jan-27 12:00N 41°03' W 018°50'0 0.0 14.1
2015-Jan-27 11:00N 41°03' W 018°50'0 0.0 14.0
2015-Jan-27 09:00N 41°03' W 018°50'0 0.1 14.1
2015-Jan-27 07:00N 41°03' W 018°50'0 0.1 14.1
2015-Jan-27 05:00N 41°04' W 018°50'0 0.0 14.1
2015-Jan-27 04:00N 41°04' W 018°50'0 0.1 14.1
2015-Jan-26 23:00N 41°03' W 018°50'0 0.0 14.1
2015-Jan-26 22:00N 41°03' W 018°50'0 0.2 14.1
2015-Jan-26 21:00N 41°03' W 018°49'0 0.1 14.1
2015-Jan-26 19:00N 41°03' W 018°50'0 0.3 14.2
2015-Jan-26 18:00N 41°03' W 018°50'1 0.6 14.2
2015-Jan-26 17:00N 41°03' W 018°49'0 0.2 14.2
2015-Jan-26 15:00N 41°04' W 018°50'0 0.0 14.3
2015-Jan-26 14:00N 41°04' W 018°50'1 0.2 14.3
2015-Jan-26 11:00N 41°04' W 018°50'1 0.1 14.1
2015-Jan-26 07:00N 41°04' W 018°51'0 0.2 14.1
2015-Jan-26 06:00N 41°04' W 018°51'0 0.2 14.1
2015-Jan-26 04:00N 41°03' W 018°51'0 0.4 14.1
2015-Jan-26 03:00N 41°03' W 018°51'0 0.0 14.1
2015-Jan-26 02:00N 41°03' W 018°51'1 0.2 14.1
2015-Jan-25 20:00N 41°03' W 018°50'0 0.2 14.2
2015-Jan-25 19:00N 41°03' W 018°50'0 0.4 14.2
2015-Jan-25 18:00N 41°03' W 018°50'0 0.0 14.3
2015-Jan-25 17:00N 41°03' W 018°50'0 0.0 14.5
2015-Jan-25 16:00N 41°03' W 018°50'0 0.2 14.6
2015-Jan-25 15:00N 41°03' W 018°51'0 0.2 14.5
2015-Jan-25 14:00N 41°03' W 018°50'0 0.2 14.4
2015-Jan-25 12:00N 41°03' W 018°50'0 0.1 14.2
2015-Jan-25 11:00N 41°03' W 018°50'0 0.0 14.1
2015-Jan-25 10:00N 41°03' W 018°50'0 0.1 14.1
2015-Jan-25 08:00N 41°03' W 018°50'0 0.4 14.1
2015-Jan-25 07:00N 41°03' W 018°50'0 0.2 14.1
2015-Jan-25 06:00N 41°03' W 018°50'0 0.4 14.1
2015-Jan-25 05:00N 41°02' W 018°50'0 0.1 14.1
2015-Jan-25 03:00N 41°02' W 018°50'0 0.1 14.1
2015-Jan-24 22:00N 41°03' W 018°49'0 0.4 14.2
2015-Jan-24 21:00N 41°03' W 018°50'0 0.0 14.2
2015-Jan-24 20:00N 41°03' W 018°50'0 0.1 14.2
2015-Jan-24 18:00N 41°03' W 018°50'1 0.6 14.3
2015-Jan-24 17:00N 41°03' W 018°51'0 0.3 14.4
2015-Jan-24 16:00N 41°02' W 018°50'1 0.4 14.5
2015-Jan-24 14:00N 41°02' W 018°51'1 0.4 14.6
2015-Jan-24 12:00N 41°01' W 018°50'0 0.3 14.1
2015-Jan-24 11:00N 41°01' W 018°50'1 0.2 14.1
2015-Jan-24 08:00N 41°02' W 018°49'0 0.4 14.1
2015-Jan-24 07:00N 41°02' W 018°49'0 0.1 14.0
2015-Jan-24 06:00N 41°02' W 018°49'1 0.5 14.0
2015-Jan-24 05:00N 41°03' W 018°49'0 0.0 14.1
2015-Jan-24 04:00N 41°03' W 018°49'1 0.7 14.1
2015-Jan-24 02:00N 41°01' W 018°50'0 0.0 14.1
2015-Jan-24 00:00N 41°01' W 018°50'0 0.0 14.1
2015-Jan-23 23:00N 41°01' W 018°50'0 0.3 14.1
2015-Jan-23 22:00N 41°01' W 018°50'1 0.3 14.1
2015-Jan-23 20:00N 41°01' W 018°50'0 0.0 14.1
2015-Jan-23 19:00N 41°01' W 018°50'0 0.2 14.1
2015-Jan-23 17:00N 41°01' W 018°49'1 0.6 14.1
2015-Jan-23 16:00N 41°01' W 018°50'1 0.3 14.2
2015-Jan-23 14:00N 41°01' W 018°49'0 0.0 14.2
2015-Jan-23 13:00N 41°01' W 018°49'0 0.0 14.1
2015-Jan-23 12:00N 41°01' W 018°49'0 0.0 14.1
2015-Jan-23 11:00N 41°01' W 018°49'0 0.2 14.1
2015-Jan-23 09:00N 41°01' W 018°50'0 0.0 14.1
2015-Jan-23 06:00N 41°01' W 018°50'0 0.0 14.1
2015-Jan-23 05:00N 41°01' W 018°50'2 0.9 14.1
2015-Jan-23 03:00N 40°60' W 018°51'0 0.1 14.1
2015-Jan-22 22:00N 40°60' W 018°50'0 0.3 14.1
2015-Jan-22 21:00N 40°60' W 018°50'1 0.3 14.1
2015-Jan-22 19:00N 41°00' W 018°50'0 0.0 14.1
2015-Jan-22 17:00N 41°00' W 018°50'0 0.0 14.1
2015-Jan-22 16:00N 41°00' W 018°50'1 0.7 14.1
2015-Jan-22 14:00N 41°00' W 018°52'0 0.0 14.1
2015-Jan-22 11:00N 41°00' W 018°52'1 0.4 14.1
2015-Jan-22 08:00N 40°59' W 018°52'0 0.0 14.1
2015-Jan-22 07:00N 40°59' W 018°52'1 0.6 14.0
2015-Jan-22 06:00N 40°59' W 018°51'0 0.3 14.1
2015-Jan-22 05:00N 40°59' W 018°51'0 0.2 14.1
2015-Jan-22 03:00N 40°59' W 018°50'0 0.2 14.1
2015-Jan-22 02:00N 40°59' W 018°50'0 0.0 14.1
2015-Jan-21 23:00N 40°59' W 018°50'0 0.0 14.1
2015-Jan-21 22:00N 40°59' W 018°50'1 0.6 14.1
2015-Jan-21 21:00N 40°59' W 018°51'0 0.0 14.1
2015-Jan-21 19:00N 40°59' W 018°51'0 0.0 14.1
2015-Jan-21 18:00N 40°59' W 018°51'0 0.1 14.1
2015-Jan-21 16:00N 40°59' W 018°51'0 0.2 14.1
2015-Jan-21 15:00N 40°59' W 018°51'1 0.3 14.1
2015-Jan-21 13:00N 40°58' W 018°51'0 0.0 14.1
2015-Jan-21 12:00N 40°58' W 018°51'0 0.3 14.1
2015-Jan-21 11:00N 40°58' W 018°51'1 0.8 14.1
2015-Jan-21 10:00N 40°58' W 018°50'0 0.0 14.1
2015-Jan-21 07:00N 40°58' W 018°50'1 0.7 14.1
2015-Jan-21 06:00N 40°58' W 018°49'1 0.4 14.1
2015-Jan-21 03:00N 40°57' W 018°51'0 0.0 14.1
2015-Jan-20 23:00N 40°57' W 018°51'0 0.0 14.1
2015-Jan-20 21:00N 40°57' W 018°51'0 0.0 14.1
2015-Jan-20 18:00N 40°57' W 018°51'1 0.5 14.2
2015-Jan-20 17:00N 40°57' W 018°50'1 0.4 14.2
2015-Jan-20 15:00N 40°58' W 018°49'1 0.4 14.2
2015-Jan-20 12:00N 40°59' W 018°49'0 0.0 14.2
2015-Jan-20 11:00N 40°59' W 018°49'0 0.0 14.2
2015-Jan-20 10:00N 40°59' W 018°49'0 0.0 14.2
2015-Jan-20 08:00N 40°59' W 018°49'0 0.0 14.2
2015-Jan-20 07:00N 40°59' W 018°49'0 0.3 14.2
2015-Jan-20 06:00N 40°59' W 018°49'0 0.4 14.2
2015-Jan-20 05:00N 40°59' W 018°49'0 0.0 14.2
2015-Jan-20 03:00N 40°59' W 018°49'1 0.2 14.2
2015-Jan-19 22:00N 40°58' W 018°49'1 1.1 14.2
2015-Jan-19 21:00N 40°59' W 018°48'0 0.2 14.2
2015-Jan-19 19:00N 40°59' W 018°47'0 0.0 14.2
2015-Jan-19 18:00N 40°59' W 018°47'0 0.1 14.2
2015-Jan-19 17:00N 40°59' W 018°47'1 0.3 14.2
2015-Jan-19 15:00N 40°60' W 018°47'2 0.6 14.2
2015-Jan-19 12:00N 40°60' W 018°49'0 0.0 14.2
2015-Jan-19 11:00N 40°60' W 018°49'0 0.1 14.2
2015-Jan-19 09:00N 40°60' W 018°49'0 0.2 14.2
2015-Jan-19 07:00N 40°60' W 018°50'1 0.3 14.2
2015-Jan-19 03:00N 40°59' W 018°49'0 0.0 14.2
2015-Jan-19 02:00N 40°59' W 018°49'1 0.4 14.2
2015-Jan-19 00:00N 40°59' W 018°47'0 0.0 14.2
2015-Jan-18 22:00N 40°59' W 018°47'0 0.0 14.2
2015-Jan-18 21:00N 40°59' W 018°47'0 0.2 14.2
2015-Jan-18 19:00N 40°59' W 018°47'1 1.2 14.2
2015-Jan-18 18:00N 40°59' W 018°49'0 0.0 14.2
2015-Jan-18 17:00N 40°59' W 018°49'0 0.0 14.2
2015-Jan-18 16:00N 40°59' W 018°49'1 0.3 14.2
2015-Jan-18 12:00N 40°59' W 018°47'   14.2
Track history (hours):
 
Tides and Currents Weather Stations Pressure Air Temp Water Temp Dewpoint Dewpoint Depression Visibility Wind Speed Wind Dir Waves Ship Positions

Drifting buoy 62726

Last reported at 2015-Jan-28 12:00 UTC. Time now 2015-Jan-28 14:14 UTC.
Position N 41°01' W 018°54'.

Water temperature 14.1 ° C

Date/timePositionNaut miles runAvg speedWind from/ knotsBaromVisibWave heightAir tempDewpointWater temp
2015-Jan-28 12:00N 41°01' W 018°54'0 0.0 14.1
2015-Jan-28 11:00N 41°01' W 018°54'0 0.1 14.1
2015-Jan-28 07:00N 41°01' W 018°54'0 0.1 14.1
2015-Jan-28 05:00N 41°01' W 018°54'1 0.3 14.1
2015-Jan-28 01:00N 41°02' W 018°54'0 0.0 14.1
2015-Jan-27 21:00N 41°02' W 018°54'0 0.2 14.1
2015-Jan-27 20:00N 41°03' W 018°54'1 0.5 14.1
2015-Jan-27 18:00N 41°02' W 018°54'2 1.0 14.2
2015-Jan-27 16:00N 41°02' W 018°52'2 0.5 14.2
2015-Jan-27 12:00N 41°03' W 018°50'0 0.0 14.1
2015-Jan-27 11:00N 41°03' W 018°50'0 0.0 14.0
2015-Jan-27 09:00N 41°03' W 018°50'0 0.1 14.1
2015-Jan-27 07:00N 41°03' W 018°50'0 0.1 14.1
2015-Jan-27 05:00N 41°04' W 018°50'0 0.0 14.1
2015-Jan-27 04:00N 41°04' W 018°50'0 0.1 14.1
2015-Jan-26 23:00N 41°03' W 018°50'0 0.0 14.1
2015-Jan-26 22:00N 41°03' W 018°50'0 0.2 14.1
2015-Jan-26 21:00N 41°03' W 018°49'0 0.1 14.1
2015-Jan-26 19:00N 41°03' W 018°50'0 0.3 14.2
2015-Jan-26 18:00N 41°03' W 018°50'1 0.6 14.2
2015-Jan-26 17:00N 41°03' W 018°49'0 0.2 14.2
2015-Jan-26 15:00N 41°04' W 018°50'0 0.0 14.3
2015-Jan-26 14:00N 41°04' W 018°50'1 0.2 14.3
2015-Jan-26 11:00N 41°04' W 018°50'1 0.1 14.1
2015-Jan-26 07:00N 41°04' W 018°51'0 0.2 14.1
2015-Jan-26 06:00N 41°04' W 018°51'0 0.2 14.1
2015-Jan-26 04:00N 41°03' W 018°51'0 0.4 14.1
2015-Jan-26 03:00N 41°03' W 018°51'0 0.0 14.1
2015-Jan-26 02:00N 41°03' W 018°51'1 0.2 14.1
2015-Jan-25 20:00N 41°03' W 018°50'0 0.2 14.2
2015-Jan-25 19:00N 41°03' W 018°50'0 0.4 14.2
2015-Jan-25 18:00N 41°03' W 018°50'0 0.0 14.3
2015-Jan-25 17:00N 41°03' W 018°50'0 0.0 14.5
2015-Jan-25 16:00N 41°03' W 018°50'0 0.2 14.6
2015-Jan-25 15:00N 41°03' W 018°51'0 0.2 14.5
2015-Jan-25 14:00N 41°03' W 018°50'0 0.2 14.4
2015-Jan-25 12:00N 41°03' W 018°50'0 0.1 14.2
2015-Jan-25 11:00N 41°03' W 018°50'0 0.0 14.1
2015-Jan-25 10:00N 41°03' W 018°50'0 0.1 14.1
2015-Jan-25 08:00N 41°03' W 018°50'0 0.4 14.1
2015-Jan-25 07:00N 41°03' W 018°50'0 0.2 14.1
2015-Jan-25 06:00N 41°03' W 018°50'0 0.4 14.1
2015-Jan-25 05:00N 41°02' W 018°50'0 0.1 14.1
2015-Jan-25 03:00N 41°02' W 018°50'0 0.1 14.1
2015-Jan-24 22:00N 41°03' W 018°49'0 0.4 14.2
2015-Jan-24 21:00N 41°03' W 018°50'0 0.0 14.2
2015-Jan-24 20:00N 41°03' W 018°50'0 0.1 14.2
2015-Jan-24 18:00N 41°03' W 018°50'1 0.6 14.3
2015-Jan-24 17:00N 41°03' W 018°51'0 0.3 14.4
2015-Jan-24 16:00N 41°02' W 018°50'1 0.4 14.5
2015-Jan-24 14:00N 41°02' W 018°51'1 0.4 14.6
2015-Jan-24 12:00N 41°01' W 018°50'0 0.3 14.1
2015-Jan-24 11:00N 41°01' W 018°50'1 0.2 14.1
2015-Jan-24 08:00N 41°02' W 018°49'0 0.4 14.1
2015-Jan-24 07:00N 41°02' W 018°49'0 0.1 14.0
2015-Jan-24 06:00N 41°02' W 018°49'1 0.5 14.0
2015-Jan-24 05:00N 41°03' W 018°49'0 0.0 14.1
2015-Jan-24 04:00N 41°03' W 018°49'1 0.7 14.1
2015-Jan-24 02:00N 41°01' W 018°50'0 0.0 14.1
2015-Jan-24 00:00N 41°01' W 018°50'0 0.0 14.1
2015-Jan-23 23:00N 41°01' W 018°50'0 0.3 14.1
2015-Jan-23 22:00N 41°01' W 018°50'1 0.3 14.1
2015-Jan-23 20:00N 41°01' W 018°50'0 0.0 14.1
2015-Jan-23 19:00N 41°01' W 018°50'0 0.2 14.1
2015-Jan-23 17:00N 41°01' W 018°49'1 0.6 14.1
2015-Jan-23 16:00N 41°01' W 018°50'1 0.3 14.2
2015-Jan-23 14:00N 41°01' W 018°49'0 0.0 14.2
2015-Jan-23 13:00N 41°01' W 018°49'0 0.0 14.1
2015-Jan-23 12:00N 41°01' W 018°49'0 0.0 14.1
2015-Jan-23 11:00N 41°01' W 018°49'0 0.2 14.1
2015-Jan-23 09:00N 41°01' W 018°50'0 0.0 14.1
2015-Jan-23 06:00N 41°01' W 018°50'0 0.0 14.1
2015-Jan-23 05:00N 41°01' W 018°50'2 0.9 14.1
2015-Jan-23 03:00N 40°60' W 018°51'0 0.1 14.1
2015-Jan-22 22:00N 40°60' W 018°50'0 0.3 14.1
2015-Jan-22 21:00N 40°60' W 018°50'1 0.3 14.1
2015-Jan-22 19:00N 41°00' W 018°50'0 0.0 14.1
2015-Jan-22 17:00N 41°00' W 018°50'0 0.0 14.1
2015-Jan-22 16:00N 41°00' W 018°50'1 0.7 14.1
2015-Jan-22 14:00N 41°00' W 018°52'0 0.0 14.1
2015-Jan-22 11:00N 41°00' W 018°52'1 0.4 14.1
2015-Jan-22 08:00N 40°59' W 018°52'0 0.0 14.1
2015-Jan-22 07:00N 40°59' W 018°52'1 0.6 14.0
2015-Jan-22 06:00N 40°59' W 018°51'0 0.3 14.1
2015-Jan-22 05:00N 40°59' W 018°51'0 0.2 14.1
2015-Jan-22 03:00N 40°59' W 018°50'0 0.2 14.1
2015-Jan-22 02:00N 40°59' W 018°50'0 0.0 14.1
2015-Jan-21 23:00N 40°59' W 018°50'0 0.0 14.1
2015-Jan-21 22:00N 40°59' W 018°50'1 0.6 14.1
2015-Jan-21 21:00N 40°59' W 018°51'0 0.0 14.1
2015-Jan-21 19:00N 40°59' W 018°51'0 0.0 14.1
2015-Jan-21 18:00N 40°59' W 018°51'0 0.1 14.1
2015-Jan-21 16:00N 40°59' W 018°51'0 0.2 14.1
2015-Jan-21 15:00N 40°59' W 018°51'1 0.3 14.1
2015-Jan-21 13:00N 40°58' W 018°51'0 0.0 14.1
2015-Jan-21 12:00N 40°58' W 018°51'0 0.3 14.1
2015-Jan-21 11:00N 40°58' W 018°51'1 0.8 14.1
2015-Jan-21 10:00N 40°58' W 018°50'0 0.0 14.1
2015-Jan-21 07:00N 40°58' W 018°50'1 0.7 14.1
2015-Jan-21 06:00N 40°58' W 018°49'1 0.4 14.1
2015-Jan-21 03:00N 40°57' W 018°51'0 0.0 14.1
2015-Jan-20 23:00N 40°57' W 018°51'0 0.0 14.1
2015-Jan-20 21:00N 40°57' W 018°51'0 0.0 14.1
2015-Jan-20 18:00N 40°57' W 018°51'1 0.5 14.2
2015-Jan-20 17:00N 40°57' W 018°50'1 0.4 14.2
2015-Jan-20 15:00N 40°58' W 018°49'1 0.4 14.2
2015-Jan-20 12:00N 40°59' W 018°49'0 0.0 14.2
2015-Jan-20 11:00N 40°59' W 018°49'0 0.0 14.2
2015-Jan-20 10:00N 40°59' W 018°49'0 0.0 14.2
2015-Jan-20 08:00N 40°59' W 018°49'0 0.0 14.2
2015-Jan-20 07:00N 40°59' W 018°49'0 0.3 14.2
2015-Jan-20 06:00N 40°59' W 018°49'0 0.4 14.2
2015-Jan-20 05:00N 40°59' W 018°49'0 0.0 14.2
2015-Jan-20 03:00N 40°59' W 018°49'1 0.2 14.2
2015-Jan-19 22:00N 40°58' W 018°49'1 1.1 14.2
2015-Jan-19 21:00N 40°59' W 018°48'0 0.2 14.2
2015-Jan-19 19:00N 40°59' W 018°47'0 0.0 14.2
2015-Jan-19 18:00N 40°59' W 018°47'0 0.1 14.2
2015-Jan-19 17:00N 40°59' W 018°47'1 0.3 14.2
2015-Jan-19 15:00N 40°60' W 018°47'2 0.6 14.2
2015-Jan-19 12:00N 40°60' W 018°49'0 0.0 14.2
2015-Jan-19 11:00N 40°60' W 018°49'0 0.1 14.2
2015-Jan-19 09:00N 40°60' W 018°49'0 0.2 14.2
2015-Jan-19 07:00N 40°60' W 018°50'1 0.3 14.2
2015-Jan-19 03:00N 40°59' W 018°49'0 0.0 14.2
2015-Jan-19 02:00N 40°59' W 018°49'1 0.4 14.2
2015-Jan-19 00:00N 40°59' W 018°47'0 0.0 14.2
2015-Jan-18 22:00N 40°59' W 018°47'0 0.0 14.2
2015-Jan-18 21:00N 40°59' W 018°47'0 0.2 14.2
2015-Jan-18 19:00N 40°59' W 018°47'1 1.2 14.2
2015-Jan-18 18:00N 40°59' W 018°49'0 0.0 14.2
2015-Jan-18 17:00N 40°59' W 018°49'0 0.0 14.2
2015-Jan-18 16:00N 40°59' W 018°49'1 0.3 14.2
2015-Jan-18 12:00N 40°59' W 018°47'   14.2

Dump ship's entire track history